ENVA/TRD METAR and TAF weather

Enter ICAO airport designator
Station Type Date Time Source
ENVA METAR 2021/03/08 15:20 UTC NOAA

ENVA 081520Z VRB03KT 1000 SN VV010 M01/M01 Q1015 TEMPO VV005 RMK WIND 670FT 19010KT


Station Type Date Time Source
ENVA Decoded METAR 2021/03/08 15:20 UTC NOAA

Trondheim / Vaernes, Norway (ENVA) 63-28N 010-56E 17M
Mar 08, 2021 - 10:20 AM EST / 2021.03.08 1520 UTC
Wind: Variable at 3 MPH (3 KT):0
Visibility: less than 1 mile:0
Sky conditions: obscured
Weather: snow
Temperature: 30 F (-1 C)
Dew Point: 30 F (-1 C)
Relative Humidity: 100%
Pressure (altimeter): 29.97 in. Hg (1015 hPa)
ob: ENVA 081520Z VRB03KT 1000 SN VV010 M01/M01 Q1015 TEMPO VV005 RMK WIND 670FT 19010KT
cycle: 15

Station Type Date Time Source
ENVA TAF 2021/03/08 12:57 UTC NOAA

TAF ENVA 081100Z 0812/0912 VRB06KT 9000 -SNRA BKN020
BECMG 0813/0815 24012KT
TEMPO 0815/0904 26022KT 1000 SN VV007 PROB40 0904/0908 1500 BCFG BKN002

Example: see airport list